Terminal Aerodrome Forecast
Issued by NWS

Home | Current Version | Previous Version | Text Only | Print | Product List | Glossary On
Versions: 1 2 3 4 5 6 7 8 9 10 11 12 13
000
FTUS45 KRIW 251100
TAFLND
TAF
KLND 251140Z 2512/2612 VRB06KT P6SM SCT090
     FM252100 32007KT P6SM SCT110
     FM260100 VRB04KT P6SM FEW110=

USA.gov is the U.S. government's official web portal to all federal, state and local government web resources and services.